createdAt,value
2022-10-15T00:00:51.617Z,70.00
2022-10-15T00:03:23.864Z,67.00
2022-10-15T00:05:55.999Z,66.00
2022-10-15T00:08:27.652Z,69.00
2022-10-15T00:11:05.640Z,62.50
2022-10-15T00:13:39.716Z,63.25
2022-10-15T00:16:12.999Z,66.50
2022-10-15T00:18:45.716Z,67.25
2022-10-15T00:21:20.084Z,69.75
2022-10-15T00:23:52.995Z,68.00
2022-10-15T00:26:26.311Z,66.75
2022-10-15T00:29:02.547Z,71.60
2022-10-15T00:31:35.953Z,67.40
2022-10-15T00:34:10.843Z,64.25
2022-10-15T00:36:42.558Z,69.00
2022-10-15T00:39:14.627Z,70.75
2022-10-15T00:41:48.102Z,64.25
2022-10-15T00:44:54.820Z,70.00
2022-10-15T00:47:39.051Z,69.20
2022-10-15T00:50:14.094Z,72.60
2022-10-15T00:52:52.922Z,67.75
2022-10-15T00:55:31.974Z,72.75
2022-10-15T00:58:09.852Z,69.00
2022-10-15T01:00:43.644Z,70.25
2022-10-15T01:03:16.099Z,68.00
2022-10-15T01:05:52.595Z,73.50
2022-10-15T01:08:24.680Z,71.00
2022-10-15T01:11:11.508Z,69.00
2022-10-15T01:13:54.214Z,70.25
2022-10-15T01:16:36.420Z,74.20
2022-10-15T01:19:18.487Z,72.00
2022-10-15T01:21:58.983Z,68.50
2022-10-15T01:25:06.967Z,70.40
2022-10-15T01:27:44.864Z,71.50
2022-10-15T01:30:28.033Z,63.80
2022-10-15T01:33:30.578Z,68.20
2022-10-15T01:36:12.473Z,77.00
2022-10-15T01:38:58.691Z,75.00
2022-10-15T01:41:42.034Z,71.00
2022-10-15T01:44:20.504Z,76.00
2022-10-15T01:47:17.728Z,72.40
2022-10-15T01:49:53.196Z,74.80
2022-10-15T01:52:32.892Z,74.00
2022-10-15T01:55:07.668Z,72.60
2022-10-15T01:57:45.679Z,72.40
2022-10-15T02:00:19.349Z,75.40
2022-10-15T02:02:54.113Z,66.75
2022-10-15T02:05:30.689Z,62.75
2022-10-15T02:08:13.908Z,68.00
2022-10-15T02:10:52.974Z,67.75
2022-10-15T02:13:34.570Z,65.50
2022-10-15T02:16:12.864Z,71.75
2022-10-15T02:18:52.591Z,74.60
2022-10-15T02:21:32.307Z,74.20
2022-10-15T02:24:10.653Z,72.20
2022-10-15T02:26:44.757Z,74.20
2022-10-15T02:29:23.821Z,79.60
2022-10-15T02:32:00.670Z,74.20
2022-10-15T02:34:36.651Z,70.40
2022-10-15T02:37:10.419Z,72.60
2022-10-15T02:39:47.356Z,73.20
2022-10-15T02:42:21.991Z,74.80
2022-10-15T02:44:54.473Z,70.00
2022-10-15T02:47:26.577Z,76.40
2022-10-15T02:50:00.578Z,73.00
2022-10-15T02:52:32.575Z,76.00
2022-10-15T02:55:04.824Z,74.60
2022-10-15T02:57:36.922Z,71.00
2022-10-15T03:00:10.900Z,74.60
2022-10-15T03:02:44.540Z,77.20
2022-10-15T03:05:19.500Z,73.40
2022-10-15T03:07:51.305Z,79.20
2022-10-15T03:10:24.713Z,70.20
2022-10-15T03:12:56.426Z,70.40
2022-10-15T03:15:29.918Z,76.20
2022-10-15T03:18:02.040Z,83.60
2022-10-15T03:20:35.930Z,77.40
2022-10-15T03:23:07.761Z,88.80
2022-10-15T03:25:40.555Z,81.00
2022-10-15T03:28:15.997Z,89.00
2022-10-15T03:30:49.026Z,80.60
2022-10-15T03:33:24.461Z,84.80
2022-10-15T03:36:00.419Z,86.20
2022-10-15T03:38:32.696Z,83.40
2022-10-15T03:41:09.051Z,83.20
2022-10-15T03:43:45.161Z,93.60
2022-10-15T03:46:18.393Z,82.00
2022-10-15T03:48:53.421Z,104.80
2022-10-15T03:51:30.670Z,96.40
2022-10-15T03:54:16.208Z,79.20
2022-10-15T03:56:55.789Z,89.00
2022-10-15T03:59:34.178Z,86.60
2022-10-15T04:02:08.153Z,90.00
2022-10-15T04:04:40.385Z,88.20
2022-10-15T04:07:14.777Z,90.80
2022-10-15T04:09:47.326Z,91.40
2022-10-15T04:12:32.329Z,89.80
2022-10-15T04:15:04.467Z,91.80
2022-10-15T04:17:37.053Z,86.80
2022-10-15T04:20:09.841Z,91.20
2022-10-15T04:22:44.299Z,88.60
2022-10-15T04:25:16.241Z,87.20
2022-10-15T04:27:48.455Z,96.00
2022-10-15T04:30:22.969Z,97.00
2022-10-15T04:33:02.744Z,92.80
2022-10-15T04:35:36.602Z,95.60
2022-10-15T04:38:20.306Z,93.00
2022-10-15T04:41:09.024Z,85.40
2022-10-15T04:44:02.016Z,89.20
2022-10-15T04:46:36.138Z,92.20
2022-10-15T04:49:20.109Z,89.80
2022-10-15T04:51:52.238Z,91.40
2022-10-15T04:54:34.870Z,96.00
2022-10-15T04:57:09.425Z,88.20
2022-10-15T04:59:41.639Z,82.80
2022-10-15T05:02:28.387Z,86.00
2022-10-15T05:05:16.919Z,91.40
2022-10-15T05:07:55.786Z,89.20
2022-10-15T05:10:29.257Z,94.00
2022-10-15T05:13:05.592Z,87.80
2022-10-15T05:15:39.875Z,86.40
2022-10-15T05:18:14.075Z,80.20
2022-10-15T05:20:53.012Z,84.00
2022-10-15T05:23:25.379Z,86.00
2022-10-15T05:26:14.640Z,78.80
2022-10-15T05:28:47.059Z,85.60
2022-10-15T05:31:30.441Z,76.60
2022-10-15T05:34:22.835Z,84.60
2022-10-15T05:37:01.135Z,86.60
2022-10-15T05:39:34.393Z,84.60
2022-10-15T05:42:08.308Z,80.00
2022-10-15T05:44:47.204Z,77.20
2022-10-15T05:47:19.515Z,75.20
2022-10-15T05:49:51.888Z,81.00
2022-10-15T05:52:34.171Z,81.40
2022-10-15T05:55:15.274Z,69.40
2022-10-15T05:57:48.444Z,72.20
2022-10-15T06:00:47.061Z,72.25
2022-10-15T06:03:19.142Z,69.75
2022-10-15T06:05:51.076Z,70.00
2022-10-15T06:08:24.038Z,65.50
2022-10-15T06:10:57.377Z,66.25
2022-10-15T06:13:30.771Z,69.00
2022-10-15T06:16:02.891Z,68.25
2022-10-15T06:18:34.884Z,71.75
2022-10-15T06:21:09.119Z,69.50
2022-10-15T06:23:41.190Z,66.50
2022-10-15T06:26:14.362Z,64.75
2022-10-15T06:28:47.783Z,66.50
2022-10-15T06:31:20.499Z,63.75
2022-10-15T06:33:52.246Z,66.75
2022-10-15T06:36:25.742Z,64.00
2022-10-15T06:38:57.394Z,55.25
2022-10-15T06:41:29.596Z,63.75
2022-10-15T06:44:30.452Z,59.50
2022-10-15T06:47:02.378Z,59.25
2022-10-15T06:49:37.589Z,60.50
2022-10-15T06:52:09.728Z,59.25
2022-10-15T06:54:41.803Z,63.00
2022-10-15T06:57:15.178Z,66.00
2022-10-15T06:59:48.960Z,61.00
2022-10-15T07:02:21.510Z,59.00
2022-10-15T07:04:53.346Z,54.00
2022-10-15T07:07:27.783Z,59.50
2022-10-15T07:09:59.888Z,59.25
2022-10-15T07:12:31.724Z,60.00
2022-10-15T07:15:05.754Z,59.75
2022-10-15T07:17:40.075Z,57.00
2022-10-15T07:20:13.119Z,62.25
2022-10-15T07:22:46.052Z,58.00
2022-10-15T07:25:18.704Z,59.00
2022-10-15T07:27:51.424Z,57.25
2022-10-15T07:30:25.200Z,57.00
2022-10-15T07:32:58.736Z,59.50
2022-10-15T07:35:31.842Z,57.50
2022-10-15T07:38:05.060Z,62.25
2022-10-15T07:40:36.912Z,62.00
2022-10-15T07:43:08.996Z,61.00
2022-10-15T07:45:43.025Z,60.00
2022-10-15T07:48:14.823Z,55.25
2022-10-15T07:50:47.005Z,59.00
2022-10-15T07:53:21.960Z,58.25
2022-10-15T07:56:20.841Z,59.75
2022-10-15T07:58:54.519Z,60.50
2022-10-15T08:01:29.081Z,62.00
2022-10-15T08:04:01.527Z,57.00
2022-10-15T08:06:35.982Z,56.00
2022-10-15T08:09:09.411Z,56.25
2022-10-15T08:11:41.807Z,56.00
2022-10-15T08:14:14.503Z,57.50
2022-10-15T08:16:48.060Z,54.00
2022-10-15T08:19:20.731Z,61.75
2022-10-15T08:21:53.995Z,58.00
2022-10-15T08:24:26.327Z,56.25
2022-10-15T08:26:58.589Z,58.50
2022-10-15T08:29:31.510Z,59.50
2022-10-15T08:32:04.990Z,59.50
2022-10-15T08:34:37.200Z,57.00
2022-10-15T08:37:09.248Z,57.75
2022-10-15T08:39:41.532Z,55.25
2022-10-15T08:42:21.805Z,57.00
2022-10-15T08:44:59.987Z,58.00
2022-10-15T08:47:41.305Z,56.50
2022-10-15T08:50:23.911Z,57.00
2022-10-15T08:52:59.539Z,60.50
2022-10-15T08:55:37.260Z,57.25
2022-10-15T08:58:18.025Z,58.50
2022-10-15T09:00:54.817Z,55.50
2022-10-15T09:03:41.061Z,55.00
2022-10-15T09:06:20.652Z,54.75
2022-10-15T09:09:08.618Z,58.25
2022-10-15T09:11:52.945Z,59.25
2022-10-15T09:14:30.954Z,60.00
2022-10-15T09:17:08.689Z,59.75
2022-10-15T09:19:42.264Z,59.25
2022-10-15T09:22:18.394Z,59.75
2022-10-15T09:24:50.823Z,58.25
2022-10-15T09:27:31.727Z,60.00
2022-10-15T09:30:36.865Z,59.25
2022-10-15T09:33:20.026Z,58.75
2022-10-15T09:35:59.422Z,53.50
2022-10-15T09:38:46.192Z,57.25
2022-10-15T09:41:29.049Z,55.00
2022-10-15T09:44:05.663Z,52.25
2022-10-15T09:46:55.408Z,59.00
2022-10-15T09:49:35.382Z,54.50
2022-10-15T09:52:16.833Z,59.00
2022-10-15T09:54:59.408Z,58.00
2022-10-15T09:57:34.981Z,59.50
2022-10-15T10:00:11.209Z,55.00
2022-10-15T10:02:48.175Z,50.00
2022-10-15T10:05:31.139Z,56.75
2022-10-15T10:08:20.334Z,56.25
2022-10-15T10:11:00.027Z,57.00
2022-10-15T10:13:35.066Z,56.50
2022-10-15T10:16:10.098Z,57.50
2022-10-15T10:18:44.465Z,56.75
2022-10-15T10:21:28.132Z,53.00
2022-10-15T10:24:35.790Z,59.50
2022-10-15T10:27:24.326Z,59.00
2022-10-15T10:30:00.710Z,58.75
2022-10-15T10:32:35.724Z,59.50
2022-10-15T10:35:09.668Z,58.00
2022-10-15T10:37:46.449Z,61.00
2022-10-15T10:40:31.269Z,60.25
2022-10-15T10:43:20.218Z,57.50
2022-10-15T10:46:03.709Z,61.00
2022-10-15T10:48:48.900Z,59.00
2022-10-15T10:51:24.285Z,53.00
2022-10-15T10:54:00.486Z,60.50
2022-10-15T10:56:38.103Z,60.00
2022-10-15T10:59:19.481Z,61.00
2022-10-15T11:01:54.803Z,59.25
2022-10-15T11:04:29.778Z,59.00
2022-10-15T11:07:07.148Z,55.25
2022-10-15T11:09:53.710Z,57.50
2022-10-15T11:12:47.868Z,61.00
2022-10-15T11:15:32.673Z,54.75
2022-10-15T11:18:24.609Z,60.00
2022-10-15T11:21:06.961Z,61.00
2022-10-15T11:24:09.142Z,59.75
2022-10-15T11:27:10.848Z,62.00
2022-10-15T11:29:58.295Z,60.75
2022-10-15T11:33:05.769Z,58.00
2022-10-15T11:35:53.657Z,62.00
2022-10-15T11:38:38.920Z,59.50
2022-10-15T11:41:29.522Z,59.00
2022-10-15T11:44:25.585Z,61.75
2022-10-15T11:47:14.473Z,61.75
2022-10-15T11:49:57.036Z,58.25
2022-10-15T11:52:44.011Z,63.50
2022-10-15T11:55:23.476Z,65.00
2022-10-15T11:58:01.208Z,60.50
2022-10-15T12:00:38.436Z,65.00
2022-10-15T12:03:21.839Z,62.25
2022-10-15T12:05:59.314Z,59.00
2022-10-15T12:08:37.978Z,61.25
2022-10-15T12:11:30.583Z,65.50
2022-10-15T12:14:08.836Z,60.25
2022-10-15T12:16:49.635Z,62.00
2022-10-15T12:19:30.348Z,60.00
2022-10-15T12:22:12.734Z,65.00
2022-10-15T12:24:56.011Z,64.75
2022-10-15T12:27:36.053Z,65.25
2022-10-15T12:30:28.853Z,62.50
2022-10-15T12:33:02.250Z,63.25
2022-10-15T12:35:41.878Z,66.00
2022-10-15T12:38:28.925Z,66.50
2022-10-15T12:41:03.811Z,64.50
2022-10-15T12:43:39.286Z,64.00
2022-10-15T12:46:14.110Z,65.25
2022-10-15T12:48:47.620Z,66.00
2022-10-15T12:51:44.375Z,63.75
2022-10-15T12:54:42.221Z,67.25
2022-10-15T12:57:50.100Z,67.50
2022-10-15T13:00:41.259Z,62.25
2022-10-15T13:03:42.536Z,66.75
2022-10-15T13:06:41.880Z,64.00
2022-10-15T13:09:35.714Z,69.75
2022-10-15T13:12:08.735Z,72.25
2022-10-15T13:14:44.395Z,71.00
2022-10-15T13:17:21.426Z,75.80
2022-10-15T13:20:04.226Z,78.40
2022-10-15T13:22:38.606Z,75.40
2022-10-15T13:25:21.934Z,77.40
2022-10-15T13:27:54.154Z,74.20
2022-10-15T13:30:26.678Z,77.00
2022-10-15T13:33:00.355Z,75.20
2022-10-15T13:35:36.146Z,90.00
2022-10-15T13:38:09.033Z,81.40
2022-10-15T13:40:42.896Z,77.60
2022-10-15T13:43:21.795Z,81.80
2022-10-15T13:45:57.308Z,85.40
2022-10-15T13:48:32.140Z,85.40
2022-10-15T13:51:06.567Z,83.80
2022-10-15T13:53:40.170Z,75.80
2022-10-15T13:56:27.992Z,82.20
2022-10-15T13:59:01.546Z,82.00
2022-10-15T14:01:36.307Z,87.40
2022-10-15T14:04:19.674Z,85.20
2022-10-15T14:07:04.734Z,84.00
2022-10-15T14:09:39.489Z,82.60
2022-10-15T14:12:15.687Z,88.00
2022-10-15T14:14:49.555Z,85.80
2022-10-15T14:17:28.453Z,91.00
2022-10-15T14:22:58.149Z,94.40
2022-10-15T14:25:30.826Z,88.00
2022-10-15T14:28:04.425Z,88.40
2022-10-15T14:30:38.850Z,86.40
2022-10-15T14:33:36.374Z,93.20
2022-10-15T14:36:11.100Z,96.80
2022-10-15T14:38:44.646Z,100.80
2022-10-15T14:41:32.103Z,102.60
2022-10-15T14:44:09.720Z,110.60
2022-10-15T14:46:45.169Z,110.20
2022-10-15T14:49:29.159Z,119.40
2022-10-15T14:52:06.916Z,124.00
2022-10-15T14:54:46.015Z,124.40
2022-10-15T14:57:27.092Z,115.40
2022-10-15T15:00:02.546Z,128.60
2022-10-15T15:02:34.892Z,133.80
2022-10-15T15:05:21.065Z,134.00
2022-10-15T15:07:52.958Z,146.60
2022-10-15T15:10:26.706Z,141.20
2022-10-15T15:13:00.937Z,148.20
2022-10-15T15:15:35.441Z,144.80
2022-10-15T15:18:08.549Z,137.00
2022-10-15T15:20:41.366Z,142.60
2022-10-15T15:23:16.653Z,139.40
2022-10-15T15:25:48.523Z,133.80
2022-10-15T15:28:23.298Z,136.60
2022-10-15T15:31:01.117Z,142.20
2022-10-15T15:33:33.459Z,136.40
2022-10-15T15:36:07.970Z,127.60
2022-10-15T15:38:40.403Z,122.80
2022-10-15T15:41:17.907Z,111.40
2022-10-15T15:43:50.510Z,122.20
2022-10-15T15:46:25.542Z,118.60
2022-10-15T15:49:00.561Z,112.20
2022-10-15T15:51:33.638Z,111.20
2022-10-15T15:54:08.349Z,107.80
2022-10-15T15:56:41.609Z,109.40
2022-10-15T15:59:14.496Z,114.40
2022-10-15T16:01:48.243Z,116.80
2022-10-15T16:04:21.240Z,105.40
2022-10-15T16:06:53.628Z,111.20
2022-10-15T16:09:26.678Z,108.40
2022-10-15T16:11:59.024Z,105.20
2022-10-15T16:14:31.278Z,106.25
2022-10-15T16:17:04.760Z,106.00
2022-10-15T16:19:37.289Z,112.20
2022-10-15T16:22:09.957Z,111.40
2022-10-15T16:24:42.142Z,112.20
2022-10-15T16:27:14.269Z,100.00
2022-10-15T16:29:46.589Z,108.60
2022-10-15T16:32:20.830Z,117.40
2022-10-15T16:34:53.179Z,124.60
2022-10-15T16:37:25.644Z,120.60
2022-10-15T16:39:57.674Z,129.60
2022-10-15T16:42:30.275Z,121.80
2022-10-15T16:45:02.701Z,124.40
2022-10-15T16:47:36.381Z,118.40
2022-10-15T16:50:09.109Z,124.60
2022-10-15T16:52:40.799Z,121.00
2022-10-15T16:55:13.498Z,107.20
2022-10-15T16:57:45.888Z,110.40
2022-10-15T17:00:18.477Z,122.80
2022-10-15T17:02:54.191Z,124.20
2022-10-15T17:05:27.520Z,128.60
2022-10-15T17:07:59.629Z,118.40
2022-10-15T17:10:32.290Z,126.40
2022-10-15T17:13:06.063Z,123.20
2022-10-15T17:15:38.432Z,117.20
2022-10-15T17:18:12.139Z,116.40
2022-10-15T17:20:48.531Z,120.80
2022-10-15T17:23:20.788Z,120.80
2022-10-15T17:25:52.983Z,119.80
2022-10-15T17:28:25.120Z,119.20
2022-10-15T17:30:57.543Z,121.40
2022-10-15T17:33:34.440Z,116.40
2022-10-15T17:36:08.512Z,122.20
2022-10-15T17:38:40.307Z,114.60
2022-10-15T17:41:14.235Z,115.80
2022-10-15T17:43:46.805Z,119.80
2022-10-15T17:46:21.852Z,114.60
2022-10-15T17:48:56.680Z,119.00
2022-10-15T17:51:31.231Z,119.80
2022-10-15T17:54:04.411Z,117.40
2022-10-15T17:56:38.158Z,114.20
2022-10-15T17:59:12.306Z,122.60
2022-10-15T18:01:57.689Z,108.60
2022-10-15T18:04:32.943Z,120.20
2022-10-15T18:07:04.865Z,111.40
2022-10-15T18:09:37.697Z,118.60
2022-10-15T18:12:10.122Z,122.40
2022-10-15T18:14:41.986Z,124.40
2022-10-15T18:17:14.074Z,113.00
2022-10-15T18:19:48.488Z,113.60
2022-10-15T18:22:20.134Z,117.40
2022-10-15T18:24:52.728Z,116.80
2022-10-15T18:27:25.092Z,110.00
2022-10-15T18:29:57.337Z,120.60
2022-10-15T18:32:30.128Z,117.40
2022-10-15T18:35:03.416Z,106.20
2022-10-15T18:37:35.365Z,108.60
2022-10-15T18:40:09.338Z,107.40
2022-10-15T18:42:41.076Z,115.80
2022-10-15T18:45:20.606Z,115.80
2022-10-15T18:47:52.730Z,111.20
2022-10-15T18:50:26.814Z,116.00
2022-10-15T18:52:58.956Z,115.80
2022-10-15T18:55:31.269Z,117.80
2022-10-15T18:58:03.757Z,118.00
2022-10-15T19:00:41.691Z,114.20
2022-10-15T19:03:14.024Z,114.40
2022-10-15T19:05:49.747Z,113.20
2022-10-15T19:08:21.812Z,106.20
2022-10-15T19:10:53.611Z,111.00
2022-10-15T19:13:25.461Z,119.60
2022-10-15T19:15:58.083Z,118.00
2022-10-15T19:18:30.424Z,117.00
2022-10-15T19:21:03.923Z,108.80
2022-10-15T19:23:36.462Z,121.00
2022-10-15T19:26:10.937Z,109.20
2022-10-15T19:28:43.531Z,124.40
2022-10-15T19:31:21.733Z,116.40
2022-10-15T19:33:54.015Z,119.40
2022-10-15T19:36:33.333Z,116.00
2022-10-15T19:39:07.597Z,110.20
2022-10-15T19:41:40.655Z,119.20
2022-10-15T19:44:14.756Z,125.20
2022-10-15T19:46:47.605Z,124.80
2022-10-15T19:49:19.935Z,113.80
2022-10-15T19:51:53.773Z,114.60
2022-10-15T19:54:26.629Z,121.00
2022-10-15T19:56:58.759Z,124.20
2022-10-15T19:59:30.545Z,121.80
2022-10-15T20:02:02.523Z,119.40
2022-10-15T20:04:34.531Z,116.40
2022-10-15T20:07:07.748Z,108.00
2022-10-15T20:09:39.956Z,116.60
2022-10-15T20:12:12.041Z,116.40
2022-10-15T20:14:43.631Z,124.00
2022-10-15T20:17:15.548Z,121.60
2022-10-15T20:19:47.748Z,124.00
2022-10-15T20:22:21.206Z,110.60
2022-10-15T20:24:53.570Z,118.00
2022-10-15T20:27:26.062Z,111.80
2022-10-15T20:29:58.349Z,128.40
2022-10-15T20:32:34.804Z,115.80
2022-10-15T20:35:08.331Z,114.80
2022-10-15T20:37:41.929Z,113.40
2022-10-15T20:40:14.534Z,104.40
2022-10-15T20:42:46.692Z,116.40
2022-10-15T20:45:19.271Z,115.20
2022-10-15T20:47:54.528Z,118.60
2022-10-15T20:50:31.611Z,109.80
2022-10-15T20:53:06.531Z,119.00
2022-10-15T20:55:38.743Z,122.60
2022-10-15T20:58:11.383Z,123.60
2022-10-15T21:00:43.580Z,121.80
2022-10-15T21:03:15.496Z,119.00
2022-10-15T21:05:47.786Z,110.40
2022-10-15T21:08:21.093Z,113.40
2022-10-15T21:10:53.037Z,115.40
2022-10-15T21:13:25.741Z,118.00
2022-10-15T21:16:02.279Z,125.40
2022-10-15T21:18:34.435Z,118.60
2022-10-15T21:21:07.689Z,124.40
2022-10-15T21:23:42.557Z,117.80
2022-10-15T21:26:16.400Z,122.00
2022-10-15T21:28:49.165Z,116.40
2022-10-15T21:31:21.634Z,124.00
2022-10-15T21:33:54.011Z,115.80
2022-10-15T21:36:28.074Z,117.00
2022-10-15T21:39:05.538Z,124.20
2022-10-15T21:41:39.118Z,128.20
2022-10-15T21:44:12.296Z,126.60
2022-10-15T21:46:45.219Z,124.20
2022-10-15T21:49:18.034Z,122.20
2022-10-15T21:51:50.060Z,127.20
2022-10-15T21:54:23.855Z,122.00
2022-10-15T21:56:56.115Z,118.80
2022-10-15T21:59:28.407Z,122.80
2022-10-15T22:02:00.913Z,118.80
2022-10-15T22:04:35.849Z,122.40
2022-10-15T22:07:10.677Z,113.20
2022-10-15T22:09:44.315Z,119.60
2022-10-15T22:12:18.969Z,115.40
2022-10-15T22:14:54.145Z,112.00
2022-10-15T22:17:26.254Z,114.20
2022-10-15T22:19:57.929Z,116.80
2022-10-15T22:22:30.631Z,110.40
2022-10-15T22:25:04.024Z,114.00
2022-10-15T22:27:36.132Z,119.00
2022-10-15T22:30:09.014Z,117.40
2022-10-15T22:32:45.829Z,121.60
2022-10-15T22:35:21.086Z,114.60
2022-10-15T22:37:57.328Z,124.20
2022-10-15T22:40:37.408Z,121.80
2022-10-15T22:43:14.786Z,116.60
2022-10-15T22:45:55.507Z,119.00
2022-10-15T22:48:32.472Z,116.40
2022-10-15T22:51:09.356Z,112.00
2022-10-15T22:53:46.707Z,119.40
2022-10-15T22:56:25.011Z,111.60
2022-10-15T22:59:04.303Z,117.40
2022-10-15T23:01:41.915Z,115.00
2022-10-15T23:04:19.840Z,113.80
2022-10-15T23:06:56.292Z,115.80
2022-10-15T23:09:31.692Z,115.00
2022-10-15T23:12:07.359Z,103.20
2022-10-15T23:14:43.108Z,107.40
2022-10-15T23:17:17.842Z,103.60
2022-10-15T23:19:53.775Z,112.00
2022-10-15T23:22:28.556Z,107.20
2022-10-15T23:25:07.204Z,117.80
2022-10-15T23:27:44.375Z,122.00
2022-10-15T23:30:25.133Z,119.80
2022-10-15T23:32:59.539Z,120.20
2022-10-15T23:38:17.653Z,128.00
2022-10-15T23:40:51.280Z,122.60
2022-10-15T23:43:34.843Z,119.80
2022-10-15T23:46:13.503Z,124.80
2022-10-15T23:48:51.511Z,123.20
2022-10-15T23:51:27.118Z,116.40
2022-10-15T23:54:03.219Z,122.80
2022-10-15T23:56:42.203Z,126.20
2022-10-15T23:59:23.655Z,117.40
